createdAt,value
2017-10-16T00:01:47.907Z,13.50
2017-10-16T00:04:14.542Z,14.67
2017-10-16T00:06:41.202Z,15.53
2017-10-16T00:09:07.845Z,16.40
2017-10-16T00:11:34.492Z,14.80
2017-10-16T00:14:01.124Z,14.23
2017-10-16T00:16:27.785Z,14.60
2017-10-16T00:18:54.418Z,13.90
2017-10-16T00:21:21.056Z,14.10
2017-10-16T00:23:47.710Z,14.30
2017-10-16T00:26:14.327Z,14.60
2017-10-16T00:28:40.978Z,14.63
2017-10-16T00:31:07.602Z,14.10
2017-10-16T00:33:34.270Z,15.33
2017-10-16T00:36:01.143Z,15.63
2017-10-16T00:38:27.783Z,14.77
2017-10-16T00:40:54.422Z,18.10
2017-10-16T00:43:21.046Z,15.73
2017-10-16T00:45:47.701Z,15.10
2017-10-16T00:48:14.335Z,13.73
2017-10-16T00:50:41.024Z,13.80
2017-10-16T00:53:07.643Z,13.77
2017-10-16T00:55:34.271Z,15.00
2017-10-16T00:58:00.914Z,14.60
2017-10-16T01:00:27.564Z,14.50
2017-10-16T01:02:54.176Z,14.53
2017-10-16T01:05:20.799Z,15.27
2017-10-16T01:07:47.438Z,15.10
2017-10-16T01:10:14.077Z,14.67
2017-10-16T01:12:40.706Z,14.63
2017-10-16T01:15:07.340Z,15.50
2017-10-16T01:17:33.988Z,15.60
2017-10-16T01:20:00.630Z,15.43
2017-10-16T01:22:27.254Z,14.77
2017-10-16T01:24:53.879Z,15.50
2017-10-16T01:27:20.550Z,14.80
2017-10-16T01:29:47.173Z,15.00
2017-10-16T01:32:13.835Z,16.60
2017-10-16T01:34:40.486Z,14.70
2017-10-16T01:37:07.098Z,14.63
2017-10-16T01:39:33.756Z,15.53
2017-10-16T01:42:00.392Z,14.80
2017-10-16T01:44:27.027Z,14.50
2017-10-16T01:46:53.671Z,15.57
2017-10-16T01:49:20.280Z,16.10
2017-10-16T01:51:46.906Z,14.00
2017-10-16T01:54:13.538Z,16.60
2017-10-16T01:56:40.173Z,14.73
2017-10-16T01:59:06.803Z,16.00
2017-10-16T02:01:33.446Z,15.57
2017-10-16T02:04:00.075Z,14.50
2017-10-16T02:06:26.712Z,15.43
2017-10-16T02:08:53.376Z,14.80
2017-10-16T02:11:20.011Z,16.63
2017-10-16T02:13:46.647Z,15.90
2017-10-16T02:16:13.320Z,13.97
2017-10-16T02:18:39.950Z,15.27
2017-10-16T02:21:06.591Z,14.60
2017-10-16T02:23:33.254Z,14.70
2017-10-16T02:25:59.911Z,14.43
2017-10-16T02:28:26.540Z,16.53
2017-10-16T02:30:53.213Z,14.80
2017-10-16T02:33:19.851Z,14.50
2017-10-16T02:35:46.477Z,15.23
2017-10-16T02:38:13.121Z,16.13
2017-10-16T02:40:39.740Z,14.63
2017-10-16T02:43:06.351Z,14.60
2017-10-16T02:45:32.998Z,15.60
2017-10-16T02:47:59.611Z,14.67
2017-10-16T02:50:26.246Z,15.53
2017-10-16T02:52:52.902Z,15.23
2017-10-16T02:55:19.521Z,15.77
2017-10-16T02:57:46.151Z,14.60
2017-10-16T03:00:12.785Z,14.97
2017-10-16T03:02:39.403Z,15.20
2017-10-16T03:05:06.059Z,16.63
2017-10-16T03:07:32.686Z,14.97
2017-10-16T03:09:59.300Z,16.07
2017-10-16T03:12:25.959Z,15.20
2017-10-16T03:14:52.578Z,15.10
2017-10-16T03:17:19.198Z,16.77
2017-10-16T03:19:45.834Z,16.10
2017-10-16T03:22:12.457Z,15.50
2017-10-16T03:24:39.127Z,17.23
2017-10-16T03:27:05.762Z,16.40
2017-10-16T03:29:32.402Z,15.57
2017-10-16T03:31:59.035Z,16.17
2017-10-16T03:34:25.659Z,16.10
2017-10-16T03:36:52.311Z,16.60
2017-10-16T03:39:18.944Z,14.90
2017-10-16T03:41:45.607Z,16.53
2017-10-16T03:44:12.221Z,15.07
2017-10-16T03:46:38.862Z,18.43
2017-10-16T03:49:05.467Z,15.77
2017-10-16T03:51:32.107Z,14.93
2017-10-16T03:53:58.731Z,15.20
2017-10-16T03:56:25.398Z,18.23
2017-10-16T03:58:52.017Z,14.97
2017-10-16T04:01:18.667Z,16.00
2017-10-16T04:03:45.295Z,15.53
2017-10-16T04:06:11.947Z,14.60
2017-10-16T04:08:38.598Z,17.23
2017-10-16T04:11:05.257Z,15.50
2017-10-16T04:13:31.927Z,16.17
2017-10-16T04:15:58.552Z,16.33
2017-10-16T04:18:25.170Z,15.53
2017-10-16T04:20:51.813Z,15.30
2017-10-16T04:23:18.436Z,16.43
2017-10-16T04:25:45.069Z,16.83
2017-10-16T04:28:11.706Z,15.77
2017-10-16T04:30:38.359Z,15.13
2017-10-16T04:33:04.975Z,16.53
2017-10-16T04:35:31.616Z,17.40
2017-10-16T04:37:58.230Z,15.50
2017-10-16T04:40:24.901Z,16.37
2017-10-16T04:42:51.569Z,17.70
2017-10-16T04:45:18.208Z,15.40
2017-10-16T04:47:44.868Z,15.77
2017-10-16T04:50:11.489Z,15.40
2017-10-16T04:52:38.110Z,16.00
2017-10-16T04:55:04.734Z,15.40
2017-10-16T04:57:31.383Z,15.10
2017-10-16T04:59:58.009Z,15.13
2017-10-16T05:02:24.622Z,15.20
2017-10-16T05:04:51.262Z,17.00
2017-10-16T05:07:17.878Z,14.73
2017-10-16T05:09:44.539Z,15.73
2017-10-16T05:12:11.155Z,14.80
2017-10-16T05:14:37.812Z,14.43
2017-10-16T05:17:04.441Z,15.43
2017-10-16T05:19:31.078Z,15.40
2017-10-16T05:21:57.706Z,14.97
2017-10-16T05:24:24.353Z,14.63
2017-10-16T05:26:50.971Z,14.50
2017-10-16T05:29:17.586Z,14.40
2017-10-16T05:31:44.262Z,13.70
2017-10-16T05:34:10.875Z,13.73
2017-10-16T05:36:37.507Z,15.03
2017-10-16T05:39:04.126Z,14.53
2017-10-16T05:41:30.776Z,14.87
2017-10-16T05:43:57.394Z,14.20
2017-10-16T05:46:24.061Z,16.40
2017-10-16T05:48:50.684Z,16.00
2017-10-16T05:51:17.339Z,13.83
2017-10-16T05:53:43.994Z,15.70
2017-10-16T05:56:10.638Z,13.67
2017-10-16T05:58:37.287Z,14.53
2017-10-16T06:01:03.894Z,15.10
2017-10-16T06:03:30.523Z,15.70
2017-10-16T06:05:57.197Z,15.00
2017-10-16T06:08:23.841Z,16.57
2017-10-16T06:10:50.502Z,14.20
2017-10-16T06:13:17.143Z,15.63
2017-10-16T06:15:43.870Z,14.90
2017-10-16T06:18:10.520Z,13.60
2017-10-16T06:20:37.142Z,14.37
2017-10-16T06:23:03.768Z,14.63
2017-10-16T06:25:30.390Z,17.07
2017-10-16T06:27:57.191Z,14.00
2017-10-16T06:30:23.847Z,14.77
2017-10-16T06:32:50.569Z,14.20
2017-10-16T06:35:17.181Z,14.40
2017-10-16T06:37:43.810Z,14.30
2017-10-16T06:40:10.424Z,14.00
2017-10-16T06:42:37.090Z,14.00
2017-10-16T06:45:03.712Z,14.90
2017-10-16T06:47:30.344Z,14.93
2017-10-16T06:49:56.982Z,14.23
2017-10-16T06:52:23.632Z,14.27
2017-10-16T06:54:50.298Z,15.23
2017-10-16T06:57:16.906Z,13.83
2017-10-16T06:59:43.562Z,14.93
2017-10-16T07:02:10.198Z,13.77
2017-10-16T07:04:36.847Z,13.87
2017-10-16T07:07:03.467Z,14.50
2017-10-16T07:09:30.090Z,14.37
2017-10-16T07:11:56.755Z,12.87
2017-10-16T07:14:24.381Z,14.30
2017-10-16T07:16:51.016Z,13.33
2017-10-16T07:19:17.846Z,14.97
2017-10-16T07:21:44.474Z,14.80
2017-10-16T07:24:11.118Z,13.73
2017-10-16T07:26:37.735Z,13.60
2017-10-16T07:29:04.348Z,14.20
2017-10-16T07:31:30.980Z,13.20
2017-10-16T07:33:57.619Z,13.20
2017-10-16T07:36:24.288Z,13.00
2017-10-16T07:38:50.915Z,16.27
2017-10-16T07:41:17.568Z,13.20
2017-10-16T07:43:44.190Z,14.70
2017-10-16T07:46:10.825Z,12.70
2017-10-16T07:48:37.470Z,14.90
2017-10-16T07:51:04.121Z,13.30
2017-10-16T07:53:30.789Z,12.83
2017-10-16T07:55:57.447Z,13.30
2017-10-16T07:58:24.095Z,12.60
2017-10-16T08:00:50.727Z,13.27
2017-10-16T08:03:17.354Z,12.30
2017-10-16T08:05:44.014Z,11.80
2017-10-16T08:08:10.662Z,14.60
2017-10-16T08:10:37.291Z,11.77
2017-10-16T08:13:03.926Z,12.40
2017-10-16T08:15:30.556Z,12.17
2017-10-16T08:17:57.194Z,12.50
2017-10-16T08:20:23.816Z,11.17
2017-10-16T08:22:50.435Z,11.67
2017-10-16T08:25:17.092Z,11.70
2017-10-16T08:27:43.707Z,11.97
2017-10-16T08:30:10.380Z,11.50
2017-10-16T08:32:37.023Z,11.77
2017-10-16T08:35:03.681Z,10.43
2017-10-16T08:37:30.323Z,12.00
2017-10-16T08:39:56.987Z,12.70
2017-10-16T08:42:23.621Z,11.27
2017-10-16T08:44:50.274Z,12.10
2017-10-16T08:47:16.930Z,12.83
2017-10-16T08:49:43.559Z,11.33
2017-10-16T08:52:10.209Z,11.03
2017-10-16T08:54:36.875Z,11.90
2017-10-16T08:57:03.500Z,10.57
2017-10-16T08:59:30.148Z,11.23
2017-10-16T09:01:56.759Z,11.37
2017-10-16T09:04:23.383Z,10.87
2017-10-16T09:06:50.039Z,9.87
2017-10-16T09:09:16.659Z,11.47
2017-10-16T09:11:43.310Z,9.47
2017-10-16T09:14:09.938Z,10.40
2017-10-16T09:16:36.575Z,11.77
2017-10-16T09:19:03.230Z,9.90
2017-10-16T09:21:29.888Z,11.17
2017-10-16T09:23:56.523Z,9.30
2017-10-16T09:26:23.187Z,9.70
2017-10-16T09:28:49.815Z,9.20
2017-10-16T09:31:16.526Z,11.00
2017-10-16T09:33:43.142Z,10.53
2017-10-16T09:36:09.795Z,9.60
2017-10-16T09:38:36.428Z,9.20
2017-10-16T09:41:03.071Z,10.47
2017-10-16T09:43:29.703Z,9.50
2017-10-16T09:45:56.324Z,10.80
2017-10-16T09:48:23.224Z,10.90
2017-10-16T09:50:49.863Z,10.80
2017-10-16T09:53:16.482Z,10.50
2017-10-16T09:55:43.142Z,10.97
2017-10-16T09:58:09.763Z,11.23
2017-10-16T10:00:36.426Z,11.30
2017-10-16T10:03:03.063Z,11.37
2017-10-16T10:05:29.980Z,10.20
2017-10-16T10:07:56.639Z,8.77
2017-10-16T10:10:23.275Z,11.00
2017-10-16T10:12:49.935Z,10.83
2017-10-16T10:15:16.570Z,9.80
2017-10-16T10:17:44.196Z,11.00
2017-10-16T10:20:10.833Z,9.90
2017-10-16T10:22:37.467Z,8.93
2017-10-16T10:25:04.120Z,9.97
2017-10-16T10:27:30.770Z,7.63
2017-10-16T10:29:57.405Z,9.53
2017-10-16T10:32:24.026Z,9.60
2017-10-16T10:34:50.647Z,9.40
2017-10-16T10:37:17.298Z,8.87
2017-10-16T10:39:43.915Z,10.97
2017-10-16T10:42:10.519Z,9.07
2017-10-16T10:44:37.168Z,9.20
2017-10-16T10:47:03.782Z,9.00
2017-10-16T10:49:30.430Z,9.57
2017-10-16T10:51:57.044Z,9.37
2017-10-16T10:54:23.680Z,10.03
2017-10-16T10:56:50.327Z,9.00
2017-10-16T10:59:16.987Z,9.47
2017-10-16T11:01:43.615Z,8.80
2017-10-16T11:04:10.246Z,8.47
2017-10-16T11:06:36.898Z,10.03
2017-10-16T11:09:03.551Z,9.27
2017-10-16T11:11:30.165Z,9.63
2017-10-16T11:13:56.796Z,9.27
2017-10-16T11:16:23.444Z,8.30
2017-10-16T11:18:50.051Z,8.47
2017-10-16T11:21:16.692Z,8.20
2017-10-16T11:23:43.346Z,7.90
2017-10-16T11:26:09.966Z,8.77
2017-10-16T11:28:36.613Z,8.10
2017-10-16T11:31:03.249Z,9.07
2017-10-16T11:33:29.856Z,8.40
2017-10-16T11:35:56.499Z,7.70
2017-10-16T11:38:23.112Z,8.00
2017-10-16T11:40:49.784Z,8.70
2017-10-16T11:43:16.440Z,7.23
2017-10-16T11:45:43.096Z,6.57
2017-10-16T11:48:09.726Z,9.07
2017-10-16T11:50:36.324Z,6.87
2017-10-16T11:53:02.977Z,7.93
2017-10-16T11:55:29.587Z,8.13
2017-10-16T11:57:56.223Z,8.60
2017-10-16T12:00:22.891Z,7.20
2017-10-16T12:02:49.563Z,7.80
2017-10-16T12:05:16.188Z,6.77
2017-10-16T12:07:42.904Z,6.37
2017-10-16T12:10:09.573Z,6.40
2017-10-16T12:12:36.275Z,8.20
2017-10-16T12:15:02.982Z,8.20
2017-10-16T12:17:29.666Z,8.20
2017-10-16T12:19:56.323Z,8.27
2017-10-16T12:22:22.947Z,9.17
2017-10-16T12:24:49.635Z,9.33
2017-10-16T12:27:16.311Z,8.20
2017-10-16T12:29:43.818Z,7.50
2017-10-16T12:32:10.488Z,8.23
2017-10-16T12:34:38.707Z,8.43
2017-10-16T12:37:05.327Z,7.67
2017-10-16T12:39:31.978Z,7.80
2017-10-16T12:41:58.594Z,8.90
2017-10-16T12:44:25.208Z,8.30
2017-10-16T12:46:51.850Z,9.00
2017-10-16T12:49:18.498Z,8.07
2017-10-16T12:51:45.129Z,7.33
2017-10-16T12:54:11.823Z,8.77
2017-10-16T12:56:38.449Z,7.73
2017-10-16T12:59:05.088Z,7.43
2017-10-16T13:01:31.787Z,8.43
2017-10-16T13:03:58.463Z,8.50
2017-10-16T13:06:25.317Z,8.83
2017-10-16T13:08:51.990Z,8.73
2017-10-16T13:11:18.632Z,8.53
2017-10-16T13:13:45.247Z,8.80
2017-10-16T13:16:11.895Z,9.87
2017-10-16T13:18:38.543Z,8.20
2017-10-16T13:21:05.173Z,8.47
2017-10-16T13:23:31.795Z,8.13
2017-10-16T13:25:58.418Z,7.57
2017-10-16T13:28:25.068Z,7.73
2017-10-16T13:30:51.718Z,8.97
2017-10-16T13:33:18.392Z,8.27
2017-10-16T13:35:45.033Z,8.60
2017-10-16T13:38:11.860Z,7.50
2017-10-16T13:40:38.490Z,8.10
2017-10-16T13:43:05.120Z,9.63
2017-10-16T13:45:31.748Z,8.43
2017-10-16T13:47:58.398Z,8.90
2017-10-16T13:50:25.038Z,7.83
2017-10-16T13:52:51.712Z,9.03
2017-10-16T13:55:18.388Z,8.23
2017-10-16T13:57:45.091Z,9.63
2017-10-16T14:00:11.810Z,8.40
2017-10-16T14:02:38.426Z,7.83
2017-10-16T14:05:05.052Z,9.37
2017-10-16T14:07:31.715Z,7.47
2017-10-16T14:09:58.381Z,8.30
2017-10-16T14:12:25.088Z,7.60
2017-10-16T14:14:51.770Z,8.47
2017-10-16T14:17:18.415Z,10.40
2017-10-16T14:19:45.078Z,9.80
2017-10-16T14:22:11.767Z,8.90
2017-10-16T14:24:38.395Z,8.20
2017-10-16T14:27:05.032Z,8.30
2017-10-16T14:29:31.676Z,9.53
2017-10-16T14:31:58.311Z,7.97
2017-10-16T14:34:24.927Z,8.23
2017-10-16T14:36:51.597Z,7.77
2017-10-16T14:39:18.229Z,8.97
2017-10-16T14:41:44.879Z,8.63
2017-10-16T14:44:11.504Z,8.10
2017-10-16T14:46:38.147Z,8.40
2017-10-16T14:49:04.802Z,8.40
2017-10-16T14:51:31.457Z,7.60
2017-10-16T14:53:58.383Z,8.20
2017-10-16T14:56:25.055Z,8.47
2017-10-16T14:58:51.707Z,8.97
2017-10-16T15:01:19.244Z,9.23
2017-10-16T15:03:45.957Z,7.60
2017-10-16T15:06:12.598Z,8.43
2017-10-16T15:08:39.229Z,7.93
2017-10-16T15:11:05.920Z,8.00
2017-10-16T15:13:32.558Z,9.30
2017-10-16T15:15:59.209Z,9.03
2017-10-16T15:18:25.849Z,9.03
2017-10-16T15:20:52.495Z,8.40
2017-10-16T15:23:19.147Z,10.63
2017-10-16T15:25:45.779Z,8.40
2017-10-16T15:28:12.487Z,9.40
2017-10-16T15:30:39.175Z,8.37
2017-10-16T15:33:05.807Z,9.27
2017-10-16T15:35:32.439Z,8.77
2017-10-16T15:37:59.075Z,9.10
2017-10-16T15:40:25.728Z,8.07
2017-10-16T15:42:52.434Z,8.30
2017-10-16T15:45:19.055Z,8.03
2017-10-16T15:47:45.779Z,8.83
2017-10-16T15:50:12.420Z,8.70
2017-10-16T15:52:39.052Z,7.60
2017-10-16T15:55:05.700Z,9.23
2017-10-16T15:57:33.682Z,9.40
2017-10-16T16:00:00.665Z,10.03
2017-10-16T16:02:27.391Z,8.93
2017-10-16T16:04:54.024Z,9.23
2017-10-16T16:07:20.663Z,8.40
2017-10-16T16:09:47.356Z,8.93
2017-10-16T16:12:13.992Z,8.50
2017-10-16T16:14:40.610Z,7.63
2017-10-16T16:17:07.274Z,7.63
2017-10-16T16:19:33.948Z,8.83
2017-10-16T16:22:00.610Z,8.50
2017-10-16T16:24:27.231Z,10.20
2017-10-16T16:26:53.857Z,9.23
2017-10-16T16:29:20.523Z,9.30
2017-10-16T16:31:47.157Z,8.27
2017-10-16T16:34:13.799Z,8.97
2017-10-16T16:36:40.458Z,9.80
2017-10-16T16:39:07.107Z,9.87
2017-10-16T16:41:33.764Z,9.03
2017-10-16T16:44:00.389Z,9.23
2017-10-16T16:46:27.054Z,9.10
2017-10-16T16:48:53.701Z,9.50
2017-10-16T16:51:20.310Z,9.63
2017-10-16T16:53:46.959Z,8.73
2017-10-16T16:56:13.872Z,11.13
2017-10-16T16:58:40.503Z,8.33
2017-10-16T17:01:07.123Z,8.33
2017-10-16T17:03:33.752Z,8.57
2017-10-16T17:06:00.389Z,9.77
2017-10-16T17:08:27.573Z,8.77
2017-10-16T17:10:54.203Z,9.53
2017-10-16T17:13:20.860Z,8.10
2017-10-16T17:15:47.492Z,7.90
2017-10-16T17:18:14.120Z,8.47
2017-10-16T17:20:40.749Z,8.63
2017-10-16T17:23:07.378Z,9.33
2017-10-16T17:25:34.048Z,9.03
2017-10-16T17:28:00.670Z,9.47
2017-10-16T17:30:27.301Z,8.17
2017-10-16T17:32:53.963Z,9.00
2017-10-16T17:35:20.629Z,7.83
2017-10-16T17:37:47.286Z,8.20
2017-10-16T17:40:13.910Z,7.73
2017-10-16T17:42:40.564Z,6.27
2017-10-16T17:45:07.203Z,7.40
2017-10-16T17:47:33.862Z,9.00
2017-10-16T17:50:00.486Z,8.60
2017-10-16T17:52:27.138Z,8.10
2017-10-16T17:54:53.793Z,7.50
2017-10-16T17:57:20.434Z,7.50
2017-10-16T17:59:47.067Z,8.73
2017-10-16T18:02:13.711Z,7.23
2017-10-16T18:04:40.359Z,8.77
2017-10-16T18:07:07.004Z,8.67
2017-10-16T18:09:33.628Z,8.40
2017-10-16T18:12:00.278Z,7.80
2017-10-16T18:14:26.950Z,8.93
2017-10-16T18:16:53.599Z,8.50
2017-10-16T18:19:20.240Z,7.73
2017-10-16T18:21:46.889Z,9.93
2017-10-16T18:24:13.575Z,8.50
2017-10-16T18:26:40.208Z,8.50
2017-10-16T18:29:06.876Z,8.73
2017-10-16T18:31:33.491Z,8.27
2017-10-16T18:34:00.140Z,10.13
2017-10-16T18:36:26.759Z,9.80
2017-10-16T18:38:53.447Z,10.13
2017-10-16T18:41:20.169Z,9.50
2017-10-16T18:43:46.779Z,9.33
2017-10-16T18:46:13.467Z,10.00
2017-10-16T18:48:40.124Z,9.03
2017-10-16T18:51:06.764Z,9.10
2017-10-16T18:53:33.407Z,10.40
2017-10-16T18:56:00.059Z,10.07
2017-10-16T18:58:26.759Z,9.50
2017-10-16T19:00:53.392Z,12.23
2017-10-16T19:03:20.035Z,10.77
2017-10-16T19:05:46.733Z,10.63
2017-10-16T19:08:13.380Z,11.10
2017-10-16T19:10:40.055Z,9.87
2017-10-16T19:13:07.537Z,9.57
2017-10-16T19:15:34.182Z,10.63
2017-10-16T19:18:00.852Z,10.33
2017-10-16T19:20:27.523Z,11.93
2017-10-16T19:22:54.174Z,11.10
2017-10-16T19:25:20.856Z,10.00
2017-10-16T19:27:47.510Z,10.80
2017-10-16T19:30:14.166Z,10.70
2017-10-16T19:32:40.844Z,11.57
2017-10-16T19:35:07.478Z,10.47
2017-10-16T19:37:34.097Z,11.40
2017-10-16T19:40:00.875Z,9.90
2017-10-16T19:42:27.544Z,12.00
2017-10-16T19:44:54.197Z,10.80
2017-10-16T19:47:20.827Z,10.93
2017-10-16T19:49:47.474Z,11.90
2017-10-16T19:52:14.099Z,12.20
2017-10-16T19:54:40.753Z,11.60
2017-10-16T19:57:07.483Z,13.37
2017-10-16T19:59:34.363Z,10.97
2017-10-16T20:02:01.031Z,12.03
2017-10-16T20:04:27.732Z,12.17
2017-10-16T20:06:54.374Z,10.57
2017-10-16T20:09:21.018Z,11.10
2017-10-16T20:11:47.699Z,12.37
2017-10-16T20:14:14.386Z,12.50
2017-10-16T20:16:41.034Z,12.87
2017-10-16T20:19:07.700Z,11.50
2017-10-16T20:21:34.365Z,11.70
2017-10-16T20:24:00.998Z,13.40
2017-10-16T20:26:27.650Z,13.80
2017-10-16T20:28:54.265Z,11.70
2017-10-16T20:31:20.935Z,12.10
2017-10-16T20:33:47.609Z,13.87
2017-10-16T20:36:14.287Z,12.20
2017-10-16T20:38:40.926Z,12.70
2017-10-16T20:41:07.586Z,12.33
2017-10-16T20:43:34.206Z,12.17
2017-10-16T20:46:00.852Z,13.73
2017-10-16T20:48:27.502Z,11.90
2017-10-16T20:50:54.123Z,11.13
2017-10-16T20:53:20.761Z,12.77
2017-10-16T20:55:47.412Z,12.60
2017-10-16T20:58:14.019Z,12.57
2017-10-16T21:00:40.953Z,12.30
2017-10-16T21:03:07.590Z,12.20
2017-10-16T21:05:34.232Z,13.47
2017-10-16T21:08:00.866Z,11.37
2017-10-16T21:10:27.498Z,13.13
2017-10-16T21:12:54.196Z,12.40
2017-10-16T21:15:20.851Z,12.67
2017-10-16T21:17:47.522Z,14.87
2017-10-16T21:20:14.137Z,13.50
2017-10-16T21:22:40.834Z,12.03
2017-10-16T21:25:07.510Z,12.80
2017-10-16T21:27:34.160Z,13.10
2017-10-16T21:30:00.870Z,13.07
2017-10-16T21:32:27.501Z,13.40
2017-10-16T21:34:54.174Z,13.57
2017-10-16T21:37:20.844Z,12.67
2017-10-16T21:39:47.475Z,13.10
2017-10-16T21:42:14.106Z,11.83
2017-10-16T21:44:40.738Z,11.43
2017-10-16T21:47:07.400Z,12.53
2017-10-16T21:49:34.041Z,12.53
2017-10-16T21:52:00.708Z,12.00
2017-10-16T21:54:27.326Z,11.90
2017-10-16T21:56:53.958Z,12.47
2017-10-16T21:59:20.574Z,10.60
2017-10-16T22:01:47.214Z,11.93
2017-10-16T22:04:13.843Z,12.27
2017-10-16T22:06:40.521Z,13.10
2017-10-16T22:09:07.154Z,11.77
2017-10-16T22:11:33.838Z,11.70
2017-10-16T22:14:00.442Z,13.50
2017-10-16T22:16:27.079Z,13.80
2017-10-16T22:18:53.694Z,13.87
2017-10-16T22:21:20.327Z,11.80
2017-10-16T22:23:46.953Z,12.77
2017-10-16T22:26:13.618Z,12.40
2017-10-16T22:28:40.243Z,13.13
2017-10-16T22:31:06.874Z,12.70
2017-10-16T22:33:33.507Z,13.30
2017-10-16T22:36:00.133Z,14.60
2017-10-16T22:38:26.750Z,12.83
2017-10-16T22:40:53.398Z,12.40
2017-10-16T22:43:20.044Z,13.40
2017-10-16T22:45:46.703Z,12.13
2017-10-16T22:48:13.345Z,13.07
2017-10-16T22:50:39.990Z,13.23
2017-10-16T22:53:06.611Z,12.77
2017-10-16T22:55:33.235Z,13.53
2017-10-16T22:57:59.862Z,12.20
2017-10-16T23:00:26.482Z,13.03
2017-10-16T23:02:53.095Z,13.50
2017-10-16T23:05:19.748Z,13.60
2017-10-16T23:07:46.362Z,13.17
2017-10-16T23:10:12.995Z,13.33
2017-10-16T23:12:39.666Z,13.03
2017-10-16T23:15:06.275Z,13.50
2017-10-16T23:17:32.903Z,12.90
2017-10-16T23:19:59.554Z,14.27
2017-10-16T23:22:26.174Z,13.17
2017-10-16T23:24:52.822Z,12.10
2017-10-16T23:27:19.442Z,13.17
2017-10-16T23:29:46.082Z,13.67
2017-10-16T23:32:12.699Z,14.37
2017-10-16T23:34:39.330Z,15.10
2017-10-16T23:37:05.958Z,14.10
2017-10-16T23:39:32.598Z,13.67
2017-10-16T23:41:59.206Z,15.30
2017-10-16T23:44:25.835Z,13.50
2017-10-16T23:46:52.459Z,14.13
2017-10-16T23:49:19.122Z,13.60
2017-10-16T23:51:45.749Z,14.20
2017-10-16T23:54:12.373Z,14.00
2017-10-16T23:56:39.010Z,14.40
2017-10-16T23:59:05.662Z,13.83
